createdAt,value
2018-11-26T00:00:35.853Z,6.30
2018-11-26T00:03:13.474Z,6.40
2018-11-26T00:05:43.753Z,6.50
2018-11-26T00:08:15.401Z,6.50
2018-11-26T00:10:55.807Z,6.50
2018-11-26T00:13:30.464Z,6.50
2018-11-26T00:16:01.786Z,6.50
2018-11-26T00:18:32.089Z,6.50
2018-11-26T00:21:02.038Z,6.50
2018-11-26T00:23:34.562Z,6.50
2018-11-26T00:26:04.516Z,6.50
2018-11-26T00:28:34.807Z,6.40
2018-11-26T00:31:05.195Z,6.40
2018-11-26T00:33:34.977Z,6.40
2018-11-26T00:36:05.755Z,6.30
2018-11-26T00:38:37.638Z,6.30
2018-11-26T00:41:19.644Z,6.20
2018-11-26T00:43:56.477Z,6.20
2018-11-26T00:46:32.073Z,6.10
2018-11-26T00:49:12.995Z,6.10
2018-11-26T00:51:43.160Z,6.10
2018-11-26T00:54:22.647Z,6.10
2018-11-26T00:57:01.425Z,6.10
2018-11-26T00:59:37.187Z,6.20
2018-11-26T01:02:15.868Z,6.20
2018-11-26T01:04:48.261Z,6.20
2018-11-26T01:07:24.221Z,6.20
2018-11-26T01:10:02.759Z,6.30
2018-11-26T01:12:35.621Z,6.30
2018-11-26T01:15:06.729Z,6.30
2018-11-26T01:17:38.743Z,6.30
2018-11-26T01:20:15.743Z,6.40
2018-11-26T01:22:58.931Z,6.40
2018-11-26T01:25:41.401Z,6.30
2018-11-26T01:28:11.532Z,6.40
2018-11-26T01:30:42.155Z,6.40
2018-11-26T01:33:13.957Z,6.40
2018-11-26T01:35:53.246Z,6.50
2018-11-26T01:38:27.465Z,6.50
2018-11-26T01:40:58.940Z,6.50
2018-11-26T01:43:34.303Z,6.50
2018-11-26T01:46:06.806Z,6.60
2018-11-26T01:48:36.663Z,6.60
2018-11-26T01:51:08.581Z,6.60
2018-11-26T01:53:39.706Z,6.70
2018-11-26T01:56:14.322Z,6.60
2018-11-26T01:58:44.713Z,6.60
2018-11-26T02:01:15.811Z,6.70
2018-11-26T02:03:45.600Z,6.60
2018-11-26T02:06:16.793Z,6.60
2018-11-26T02:08:47.577Z,6.60
2018-11-26T02:11:23.267Z,6.60
2018-11-26T02:13:54.165Z,6.60
2018-11-26T02:16:23.832Z,6.50
2018-11-26T02:18:53.687Z,6.50
2018-11-26T02:21:23.370Z,6.50
2018-11-26T02:23:54.122Z,6.40
2018-11-26T02:26:24.343Z,6.40
2018-11-26T02:28:54.272Z,6.40
2018-11-26T02:31:24.309Z,6.40
2018-11-26T02:33:55.227Z,6.40
2018-11-26T02:36:25.522Z,6.40
2018-11-26T02:38:55.198Z,6.30
2018-11-26T02:41:25.244Z,6.30
2018-11-26T02:44:00.306Z,6.30
2018-11-26T02:46:32.589Z,6.30
2018-11-26T02:49:02.114Z,6.30
2018-11-26T02:51:32.730Z,6.30
2018-11-26T02:54:04.386Z,6.40
2018-11-26T02:56:34.419Z,6.40
2018-11-26T02:59:05.982Z,6.40
2018-11-26T03:01:36.900Z,6.30
2018-11-26T03:04:11.807Z,6.40
2018-11-26T03:06:44.350Z,6.30
2018-11-26T03:09:14.946Z,6.30
2018-11-26T03:11:48.418Z,6.30
2018-11-26T03:14:18.230Z,6.30
2018-11-26T03:16:48.141Z,6.30
2018-11-26T03:19:18.104Z,6.30
2018-11-26T03:21:48.774Z,6.30
2018-11-26T03:24:21.150Z,6.30
2018-11-26T03:26:53.176Z,6.30
2018-11-26T03:29:23.580Z,6.30
2018-11-26T03:31:53.794Z,6.30
2018-11-26T03:34:23.713Z,6.30
2018-11-26T03:36:54.209Z,6.30
2018-11-26T03:39:25.195Z,6.40
2018-11-26T03:41:55.107Z,6.40
2018-11-26T03:44:25.795Z,6.40
2018-11-26T03:47:00.455Z,6.40
2018-11-26T03:49:31.618Z,6.40
2018-11-26T03:52:01.604Z,6.50
2018-11-26T03:54:31.526Z,6.50
2018-11-26T03:57:01.267Z,6.50
2018-11-26T03:59:30.929Z,6.60
2018-11-26T04:02:00.876Z,6.50
2018-11-26T04:04:30.463Z,6.60
2018-11-26T04:07:00.178Z,6.60
2018-11-26T04:09:30.707Z,6.60
2018-11-26T04:12:00.378Z,6.60
2018-11-26T04:14:35.078Z,6.60
2018-11-26T04:17:07.068Z,6.60
2018-11-26T04:19:37.170Z,6.60
2018-11-26T04:22:16.940Z,6.60
2018-11-26T04:24:50.194Z,6.70
2018-11-26T04:27:26.064Z,6.70
2018-11-26T04:29:57.080Z,6.70
2018-11-26T04:32:28.499Z,6.70
2018-11-26T04:34:58.542Z,6.70
2018-11-26T04:37:28.259Z,6.70
2018-11-26T04:39:58.196Z,6.70
2018-11-26T04:42:28.417Z,6.80
2018-11-26T04:44:59.964Z,6.80
2018-11-26T04:47:32.375Z,6.80
2018-11-26T04:50:02.657Z,6.70
2018-11-26T04:52:32.134Z,6.70
2018-11-26T04:55:03.287Z,6.70
2018-11-26T04:57:34.204Z,6.70
2018-11-26T05:00:04.128Z,6.70
2018-11-26T05:02:35.609Z,6.70
2018-11-26T05:05:07.340Z,6.70
2018-11-26T05:07:38.576Z,6.80
2018-11-26T05:10:10.914Z,6.80
2018-11-26T05:12:40.826Z,6.80
2018-11-26T05:15:12.558Z,6.80
2018-11-26T05:17:43.886Z,6.80
2018-11-26T05:20:15.900Z,6.80
2018-11-26T05:22:46.566Z,6.80
2018-11-26T05:25:16.332Z,6.80
2018-11-26T05:27:47.255Z,6.80
2018-11-26T05:30:18.081Z,6.80
2018-11-26T05:32:48.485Z,6.80
2018-11-26T05:35:18.597Z,6.70
2018-11-26T05:37:49.702Z,6.70
2018-11-26T05:40:20.014Z,6.70
2018-11-26T05:43:09.647Z,6.70
2018-11-26T05:45:54.736Z,6.70
2018-11-26T05:48:26.103Z,6.70
2018-11-26T05:50:59.053Z,6.80
2018-11-26T05:53:29.027Z,6.80
2018-11-26T05:56:00.037Z,6.80
2018-11-26T05:58:32.731Z,6.80
2018-11-26T06:01:03.939Z,6.70
2018-11-26T06:03:35.745Z,6.70
2018-11-26T06:06:06.319Z,6.80
2018-11-26T06:08:37.286Z,6.80
2018-11-26T06:11:07.630Z,6.80
2018-11-26T06:13:37.311Z,6.80
2018-11-26T06:16:07.446Z,6.70
2018-11-26T06:18:38.670Z,6.80
2018-11-26T06:21:09.472Z,6.80
2018-11-26T06:23:39.976Z,6.80
2018-11-26T06:26:10.219Z,6.70
2018-11-26T06:28:39.822Z,6.70
2018-11-26T06:31:11.031Z,6.70
2018-11-26T06:33:40.998Z,6.70
2018-11-26T06:36:11.000Z,6.70
2018-11-26T06:38:41.356Z,6.60
2018-11-26T06:41:14.975Z,6.60
2018-11-26T06:43:47.776Z,6.60
2018-11-26T06:46:25.862Z,6.50
2018-11-26T06:49:06.826Z,6.50
2018-11-26T06:52:02.394Z,6.50
2018-11-26T06:54:44.852Z,6.50
2018-11-26T06:57:14.776Z,6.40
2018-11-26T06:59:44.599Z,6.40
2018-11-26T07:02:14.293Z,6.30
2018-11-26T07:04:43.945Z,6.30
2018-11-26T07:07:14.089Z,6.30
2018-11-26T07:09:54.807Z,6.30
2018-11-26T07:12:29.175Z,6.30
2018-11-26T07:14:58.910Z,6.40
2018-11-26T07:17:32.163Z,6.50
2018-11-26T07:20:03.870Z,6.60
2018-11-26T07:22:37.800Z,6.60
2018-11-26T07:25:11.513Z,6.70
2018-11-26T07:27:44.298Z,6.70
2018-11-26T07:30:20.451Z,6.70
2018-11-26T07:32:51.303Z,6.70
2018-11-26T07:36:11.480Z,6.70
2018-11-26T07:39:01.869Z,6.70
2018-11-26T07:41:48.451Z,6.70
2018-11-26T07:44:20.043Z,6.70
2018-11-26T07:46:50.069Z,6.70
2018-11-26T07:49:23.397Z,6.80
2018-11-26T07:51:53.878Z,6.90
2018-11-26T07:54:24.275Z,6.90
2018-11-26T07:57:00.523Z,6.80
2018-11-26T07:59:32.881Z,6.90
2018-11-26T08:02:03.643Z,6.90
2018-11-26T08:04:33.968Z,6.90
2018-11-26T08:07:03.893Z,6.90
2018-11-26T08:09:33.909Z,6.90
2018-11-26T08:12:04.599Z,6.90
2018-11-26T08:14:36.394Z,6.90
2018-11-26T08:17:09.189Z,7.00
2018-11-26T08:19:41.173Z,7.00
2018-11-26T08:22:12.690Z,7.10
2018-11-26T08:24:44.251Z,7.20
2018-11-26T08:27:14.234Z,7.10
2018-11-26T08:29:45.330Z,7.20
2018-11-26T08:32:15.584Z,7.30
2018-11-26T08:34:47.186Z,7.40
2018-11-26T08:37:21.514Z,7.40
2018-11-26T08:39:54.324Z,7.50
2018-11-26T08:42:29.011Z,7.50
2018-11-26T08:45:04.328Z,7.50
2018-11-26T08:48:42.386Z,7.60
2018-11-26T08:51:13.379Z,7.60
2018-11-26T08:53:43.445Z,7.60
2018-11-26T08:56:15.966Z,7.70
2018-11-26T08:58:44.913Z,7.70
2018-11-26T09:01:18.973Z,7.60
2018-11-26T09:03:58.129Z,7.70
2018-11-26T09:06:29.494Z,7.70
2018-11-26T09:09:00.258Z,7.70
2018-11-26T09:11:31.484Z,7.70
2018-11-26T09:14:04.336Z,7.70
2018-11-26T09:16:34.314Z,7.70
2018-11-26T09:19:04.395Z,7.70
2018-11-26T09:21:34.317Z,7.80
2018-11-26T09:24:04.672Z,7.70
2018-11-26T09:26:37.161Z,7.70
2018-11-26T09:29:08.843Z,7.70
2018-11-26T09:31:41.596Z,7.60
2018-11-26T09:34:11.372Z,7.70
2018-11-26T09:36:40.998Z,7.70
2018-11-26T09:39:11.940Z,7.70
2018-11-26T09:41:42.022Z,7.80
2018-11-26T09:44:11.995Z,7.90
2018-11-26T09:46:41.819Z,7.90
2018-11-26T09:49:11.382Z,8.00
2018-11-26T09:51:47.547Z,7.90
2018-11-26T09:54:17.089Z,8.00
2018-11-26T09:56:57.634Z,8.10
2018-11-26T10:00:14.507Z,8.20
2018-11-26T10:02:45.619Z,8.20
2018-11-26T10:05:25.039Z,8.20
2018-11-26T10:07:55.181Z,8.20
2018-11-26T10:10:24.673Z,8.30
2018-11-26T10:12:56.843Z,8.40
2018-11-26T10:15:27.261Z,8.40
2018-11-26T10:17:56.566Z,8.30
2018-11-26T10:20:26.842Z,8.20
2018-11-26T10:22:57.470Z,8.30
2018-11-26T10:25:31.579Z,8.30
2018-11-26T10:28:03.889Z,8.20
2018-11-26T10:30:33.679Z,8.30
2018-11-26T10:33:04.074Z,8.40
2018-11-26T10:35:33.623Z,8.30
2018-11-26T10:38:04.490Z,8.30
2018-11-26T10:40:35.013Z,8.30
2018-11-26T10:43:11.523Z,8.30
2018-11-26T10:45:36.572Z,8.30
2018-11-26T10:48:07.681Z,8.30
2018-11-26T10:50:37.833Z,8.30
2018-11-26T10:53:11.314Z,8.30
2018-11-26T10:55:42.213Z,8.40
2018-11-26T10:58:19.908Z,8.30
2018-11-26T11:00:56.131Z,8.40
2018-11-26T11:03:29.140Z,8.30
2018-11-26T11:06:03.405Z,8.40
2018-11-26T11:08:36.694Z,8.30
2018-11-26T11:11:09.431Z,8.30
2018-11-26T11:13:42.740Z,8.30
2018-11-26T11:16:12.606Z,8.30
2018-11-26T11:18:42.772Z,8.20
2018-11-26T11:21:14.425Z,8.20
2018-11-26T11:23:45.584Z,8.20
2018-11-26T11:26:19.166Z,8.20
2018-11-26T11:28:48.725Z,8.20
2018-11-26T11:31:19.030Z,8.20
2018-11-26T11:33:51.605Z,8.20
2018-11-26T11:36:21.924Z,8.20
2018-11-26T11:39:10.726Z,8.20
2018-11-26T11:41:41.436Z,8.20
2018-11-26T11:44:12.750Z,8.30
2018-11-26T11:46:46.271Z,8.30
2018-11-26T11:49:46.390Z,8.40
2018-11-26T11:52:31.314Z,8.40
2018-11-26T11:55:01.966Z,8.30
2018-11-26T11:57:35.184Z,8.30
2018-11-26T12:00:29.902Z,8.30
2018-11-26T12:03:01.433Z,8.20
2018-11-26T12:06:09.561Z,8.00
2018-11-26T12:08:55.850Z,8.00
2018-11-26T12:11:26.952Z,7.90
2018-11-26T12:13:59.092Z,7.80
2018-11-26T12:16:33.972Z,7.80
2018-11-26T12:19:06.169Z,7.70
2018-11-26T12:21:35.871Z,7.80
2018-11-26T12:24:12.169Z,7.70
2018-11-26T12:26:48.028Z,7.70
2018-11-26T12:29:17.741Z,7.80
2018-11-26T12:31:48.940Z,7.70
2018-11-26T12:34:20.301Z,7.70
2018-11-26T12:36:52.053Z,7.70
2018-11-26T12:39:21.645Z,7.70
2018-11-26T12:41:51.645Z,7.70
2018-11-26T12:44:26.084Z,7.80
2018-11-26T12:46:59.151Z,7.80
2018-11-26T12:49:30.253Z,7.70
2018-11-26T12:52:05.944Z,7.70
2018-11-26T12:54:36.760Z,7.70
2018-11-26T12:57:07.698Z,7.70
2018-11-26T12:59:44.224Z,7.70
2018-11-26T13:02:18.644Z,7.70
2018-11-26T13:04:48.437Z,7.70
2018-11-26T13:07:18.130Z,7.70
2018-11-26T13:09:48.542Z,7.70
2018-11-26T13:12:19.052Z,7.70
2018-11-26T13:14:51.522Z,7.70
2018-11-26T13:17:30.172Z,7.70
2018-11-26T13:20:09.442Z,7.80
2018-11-26T13:22:39.956Z,7.80
2018-11-26T13:25:10.962Z,7.80
2018-11-26T13:27:43.409Z,7.90
2018-11-26T13:30:15.492Z,7.90
2018-11-26T13:32:47.186Z,7.90
2018-11-26T13:35:18.082Z,7.90
2018-11-26T13:37:49.644Z,7.90
2018-11-26T13:40:21.030Z,7.90
2018-11-26T13:42:51.485Z,8.00
2018-11-26T13:45:26.674Z,8.00
2018-11-26T13:47:56.755Z,8.10
2018-11-26T13:50:28.325Z,8.10
2018-11-26T13:52:58.086Z,8.10
2018-11-26T13:55:28.301Z,8.00
2018-11-26T13:57:58.799Z,8.00
2018-11-26T14:00:27.759Z,8.00
2018-11-26T14:02:58.860Z,8.00
2018-11-26T14:05:30.698Z,8.00
2018-11-26T14:08:01.641Z,8.00
2018-11-26T14:10:32.415Z,8.00
2018-11-26T14:13:08.364Z,8.00
2018-11-26T14:15:38.408Z,8.00
2018-11-26T14:18:09.734Z,8.00
2018-11-26T14:20:40.913Z,8.00
2018-11-26T14:23:10.821Z,8.00
2018-11-26T14:25:41.617Z,8.00
2018-11-26T14:28:12.308Z,8.10
2018-11-26T14:30:45.230Z,8.20
2018-11-26T14:33:15.014Z,8.20
2018-11-26T14:35:45.639Z,8.20
2018-11-26T14:38:15.353Z,8.20
2018-11-26T14:40:49.092Z,8.20
2018-11-26T14:43:22.333Z,8.20
2018-11-26T14:45:52.369Z,8.20
2018-11-26T14:48:22.918Z,8.20
2018-11-26T14:50:52.732Z,8.30
2018-11-26T14:53:22.471Z,8.20
2018-11-26T14:55:51.894Z,8.20
2018-11-26T14:58:21.333Z,8.20
2018-11-26T15:00:51.314Z,8.00
2018-11-26T15:03:21.617Z,8.00
2018-11-26T15:05:52.662Z,8.00
2018-11-26T15:08:24.296Z,8.00
2018-11-26T15:10:54.481Z,8.00
2018-11-26T15:13:25.144Z,7.90
2018-11-26T15:15:55.344Z,8.00
2018-11-26T15:18:25.648Z,8.00
2018-11-26T15:20:56.098Z,7.80
2018-11-26T15:23:26.665Z,7.90
2018-11-26T15:25:58.429Z,7.90
2018-11-26T15:28:28.715Z,7.90
2018-11-26T15:31:06.872Z,7.90
2018-11-26T15:33:40.431Z,8.00
2018-11-26T15:36:11.440Z,8.10
2018-11-26T15:38:42.207Z,8.20
2018-11-26T15:41:12.006Z,8.20
2018-11-26T15:43:47.688Z,8.20
2018-11-26T15:46:18.803Z,8.10
2018-11-26T15:48:48.602Z,8.20
2018-11-26T15:51:21.693Z,8.30
2018-11-26T15:53:52.451Z,8.40
2018-11-26T15:56:30.546Z,8.40
2018-11-26T15:59:00.153Z,8.50
2018-11-26T16:01:31.526Z,8.60
2018-11-26T16:04:02.775Z,8.70
2018-11-26T16:06:33.948Z,8.60
2018-11-26T16:09:06.431Z,8.60
2018-11-26T16:11:39.032Z,8.60
2018-11-26T16:14:11.146Z,8.70
2018-11-26T16:16:54.885Z,8.60
2018-11-26T16:19:26.627Z,8.60
2018-11-26T16:21:59.287Z,8.50
2018-11-26T16:24:34.548Z,8.60
2018-11-26T16:27:04.360Z,8.80
2018-11-26T16:29:36.775Z,8.70
2018-11-26T16:32:14.575Z,8.80
2018-11-26T16:34:50.951Z,8.70
2018-11-26T16:37:22.441Z,8.60
2018-11-26T16:39:52.278Z,8.70
2018-11-26T16:42:22.586Z,8.70
2018-11-26T16:44:52.346Z,8.80
2018-11-26T16:47:22.057Z,8.90
2018-11-26T16:49:51.676Z,8.90
2018-11-26T16:52:21.201Z,8.90
2018-11-26T16:54:51.643Z,8.90
2018-11-26T16:57:21.395Z,8.90
2018-11-26T16:59:53.374Z,9.00
2018-11-26T17:02:25.083Z,9.00
2018-11-26T17:05:02.460Z,8.90
2018-11-26T17:07:41.735Z,8.90
2018-11-26T17:10:22.218Z,8.80
2018-11-26T17:13:00.965Z,8.70
2018-11-26T17:15:37.031Z,8.60
2018-11-26T17:18:18.682Z,8.40
2018-11-26T17:20:49.530Z,8.50
2018-11-26T17:23:19.013Z,8.60
2018-11-26T17:25:48.903Z,8.70
2018-11-26T17:28:23.333Z,8.70
2018-11-26T17:30:53.672Z,8.60
2018-11-26T17:33:26.940Z,8.50
2018-11-26T17:35:56.443Z,8.60
2018-11-26T17:38:32.950Z,8.60
2018-11-26T17:41:03.729Z,8.50
2018-11-26T17:43:34.531Z,8.40
2018-11-26T17:46:07.290Z,8.30
2018-11-26T17:48:37.020Z,8.40
2018-11-26T17:51:07.647Z,8.50
2018-11-26T17:53:37.190Z,8.40
2018-11-26T17:56:09.260Z,8.40
2018-11-26T17:58:39.230Z,8.50
2018-11-26T18:01:18.671Z,8.40
2018-11-26T18:03:49.554Z,8.40
2018-11-26T18:06:22.432Z,8.40
2018-11-26T18:08:54.656Z,8.50
2018-11-26T18:11:25.097Z,8.60
2018-11-26T18:13:59.333Z,8.60
2018-11-26T18:16:31.376Z,8.70
2018-11-26T18:19:01.872Z,8.60
2018-11-26T18:21:31.768Z,8.50
2018-11-26T18:24:04.730Z,8.40
2018-11-26T18:26:44.797Z,8.30
2018-11-26T18:29:22.544Z,8.20
2018-11-26T18:31:53.694Z,8.00
2018-11-26T18:34:24.614Z,8.10
2018-11-26T18:36:54.804Z,8.10
2018-11-26T18:39:24.813Z,7.80
2018-11-26T18:41:57.175Z,7.80
2018-11-26T18:44:35.226Z,7.70
2018-11-26T18:47:14.491Z,7.80
2018-11-26T18:49:51.899Z,7.80
2018-11-26T18:52:33.218Z,7.90
2018-11-26T18:55:05.002Z,7.80
2018-11-26T18:57:38.902Z,7.90
2018-11-26T19:00:14.642Z,8.00
2018-11-26T19:02:52.089Z,7.90
2018-11-26T19:05:24.861Z,7.80
2018-11-26T19:07:55.380Z,7.90
2018-11-26T19:10:30.691Z,7.90
2018-11-26T19:13:13.416Z,7.80
2018-11-26T19:15:45.788Z,7.80
2018-11-26T19:18:46.608Z,8.00
2018-11-26T19:21:24.594Z,8.00
2018-11-26T19:23:55.737Z,7.80
2018-11-26T19:26:26.328Z,7.90
2018-11-26T19:28:59.303Z,7.90
2018-11-26T19:31:33.081Z,8.00
2018-11-26T19:34:12.043Z,8.00
2018-11-26T19:36:55.254Z,7.90
2018-11-26T19:39:25.862Z,7.90
2018-11-26T19:41:55.231Z,7.80
2018-11-26T19:44:27.387Z,7.70
2018-11-26T19:46:59.351Z,7.80
2018-11-26T19:49:29.414Z,7.90
2018-11-26T19:52:08.899Z,8.00
2018-11-26T19:54:39.994Z,8.10
2018-11-26T19:57:11.100Z,8.00
2018-11-26T19:59:40.862Z,7.90
2018-11-26T20:02:16.521Z,7.90
2018-11-26T20:04:53.932Z,7.70
2018-11-26T20:07:25.648Z,7.80
2018-11-26T20:09:59.821Z,7.90
2018-11-26T20:12:33.337Z,8.00
2018-11-26T20:15:02.871Z,8.00
2018-11-26T20:17:32.884Z,8.00
2018-11-26T20:20:04.334Z,7.90
2018-11-26T20:22:35.862Z,7.80
2018-11-26T20:25:10.742Z,7.90
2018-11-26T20:27:42.145Z,7.90
2018-11-26T20:30:18.004Z,7.90
2018-11-26T20:32:49.004Z,7.90
2018-11-26T20:35:21.363Z,7.80
2018-11-26T20:37:58.433Z,7.70
2018-11-26T20:43:16.429Z,7.70
2018-11-26T20:45:48.518Z,7.70
2018-11-26T20:48:19.490Z,7.70
2018-11-26T20:50:52.549Z,7.70
2018-11-26T20:53:24.799Z,7.70
2018-11-26T20:55:56.884Z,7.50
2018-11-26T20:58:27.023Z,7.50
2018-11-26T21:00:58.442Z,7.60
2018-11-26T21:03:31.881Z,7.60
2018-11-26T21:06:01.974Z,7.60
2018-11-26T21:08:31.927Z,7.60
2018-11-26T21:11:01.473Z,7.70
2018-11-26T21:13:31.371Z,7.70
2018-11-26T21:16:01.907Z,7.50
2018-11-26T21:18:31.841Z,7.60
2018-11-26T21:21:06.173Z,7.70
2018-11-26T21:23:41.745Z,7.70
2018-11-26T21:26:17.517Z,7.60
2018-11-26T21:28:47.272Z,7.60
2018-11-26T21:31:18.568Z,7.70
2018-11-26T21:33:48.040Z,7.70
2018-11-26T21:36:17.637Z,7.60
2018-11-26T21:38:47.457Z,7.70
2018-11-26T21:41:17.776Z,7.80
2018-11-26T21:43:48.611Z,7.80
2018-11-26T21:46:19.346Z,7.90
2018-11-26T21:48:49.769Z,7.80
2018-11-26T21:51:21.380Z,7.70
2018-11-26T21:53:51.874Z,7.70
2018-11-26T21:56:21.744Z,7.70
2018-11-26T21:58:53.511Z,7.60
2018-11-26T22:01:24.964Z,7.50
2018-11-26T22:03:54.642Z,7.50
2018-11-26T22:06:24.640Z,7.60
2018-11-26T22:08:54.403Z,7.70
2018-11-26T22:11:24.323Z,7.70
2018-11-26T22:13:55.004Z,7.60
2018-11-26T22:16:26.631Z,7.70
2018-11-26T22:18:57.020Z,7.70
2018-11-26T22:21:28.149Z,7.60
2018-11-26T22:23:59.749Z,7.50
2018-11-26T22:26:29.862Z,7.50
2018-11-26T22:29:01.479Z,7.60
2018-11-26T22:31:31.191Z,7.70
2018-11-26T22:34:01.452Z,7.70
2018-11-26T22:36:32.725Z,7.70
2018-11-26T22:39:04.069Z,7.60
2018-11-26T22:41:33.721Z,7.70
2018-11-26T22:44:03.398Z,7.70
2018-11-26T22:46:36.446Z,7.80
2018-11-26T22:49:06.183Z,7.70
2018-11-26T22:51:37.844Z,7.70
2018-11-26T22:54:08.837Z,7.60
2018-11-26T22:56:38.853Z,7.60
2018-11-26T22:59:08.580Z,7.70
2018-11-26T23:01:38.615Z,7.50
2018-11-26T23:04:08.284Z,7.60
2018-11-26T23:06:37.807Z,7.50
2018-11-26T23:09:08.927Z,7.50
2018-11-26T23:11:38.391Z,7.40
2018-11-26T23:14:10.615Z,7.50
2018-11-26T23:16:40.444Z,7.70
2018-11-26T23:19:14.134Z,7.70
2018-11-26T23:21:44.129Z,7.80
2018-11-26T23:24:14.279Z,7.90
2018-11-26T23:26:43.722Z,7.90
2018-11-26T23:29:13.425Z,7.90
2018-11-26T23:31:42.860Z,7.90
2018-11-26T23:34:12.698Z,7.80
2018-11-26T23:36:42.872Z,7.90
2018-11-26T23:39:12.690Z,7.90
2018-11-26T23:41:42.929Z,7.90
2018-11-26T23:44:12.815Z,8.00
2018-11-26T23:46:55.597Z,8.10
2018-11-26T23:49:25.971Z,8.10
2018-11-26T23:51:56.112Z,8.10
2018-11-26T23:54:25.720Z,8.10
2018-11-26T23:56:55.309Z,8.00
2018-11-26T23:59:24.983Z,8.00
